KPWK/PWK METAR and TAF weather

Enter ICAO airport designator
Station Type Date Time Source
KPWK METAR 2024/06/16 08:52 UTC NOAA

KPWK 160852Z AUTO 17010KT 10SM CLR 22/10 A2996 RMK AO2 SLP140 T02220100 58008 $


Station Type Date Time Source
KPWK Decoded METAR 2024/06/16 08:52 UTC NOAA

CHICAGO EXECUTIVE AIRPORT, IL, United States (KPWK) 42-07N 087-54W 203M
Jun 16, 2024 - 04:52 AM EDT / 2024.06.16 0852 UTC
Wind: from the S (170 degrees) at 12 MPH (10 KT):0
Visibility: 10 mile(s):0
Sky conditions: clear
Temperature: 72.0 F (22.2 C)
Dew Point: 50.0 F (10.0 C)
Relative Humidity: 45%
Pressure (altimeter): 29.96 in. Hg (1014 hPa)
Pressure tendency: 0.02 inches (0.8 hPa) lower than three hours ago
ob: KPWK 160852Z AUTO 17010KT 10SM CLR 22/10 A2996 RMK AO2 SLP140 T02220100 58008
cycle: 9

Station Type Date Time Source
KPWK TAF UTC NOAA

Error!

Example: see airport list